createdAt,value
2023-04-19T00:00:44.242Z,11.05
2023-04-19T00:03:11.532Z,10.50
2023-04-19T00:05:41.556Z,11.02
2023-04-19T00:08:08.263Z,10.93
2023-04-19T00:10:36.037Z,10.98
2023-04-19T00:13:02.789Z,10.05
2023-04-19T00:15:29.217Z,11.00
2023-04-19T00:17:56.514Z,10.95
2023-04-19T00:20:23.037Z,10.27
2023-04-19T00:22:49.464Z,11.20
2023-04-19T00:25:16.018Z,11.20
2023-04-19T00:27:42.510Z,10.57
2023-04-19T00:30:09.353Z,10.65
2023-04-19T00:32:35.840Z,10.68
2023-04-19T00:35:02.296Z,11.00
2023-04-19T00:37:28.818Z,10.98
2023-04-19T00:39:55.368Z,10.80
2023-04-19T00:42:21.825Z,10.95
2023-04-19T00:44:48.308Z,10.88
2023-04-19T00:47:15.007Z,11.00
2023-04-19T00:49:41.617Z,10.95
2023-04-19T00:52:08.470Z,10.55
2023-04-19T00:54:35.553Z,10.70
2023-04-19T00:57:02.018Z,11.07
2023-04-19T00:59:29.161Z,10.85
2023-04-19T01:01:55.712Z,11.25
2023-04-19T01:04:23.089Z,11.20
2023-04-19T01:06:50.545Z,11.50
2023-04-19T01:09:17.079Z,11.50
2023-04-19T01:11:43.743Z,11.80
2023-04-19T01:14:10.310Z,11.35
2023-04-19T01:16:36.908Z,10.75
2023-04-19T01:19:03.534Z,11.43
2023-04-19T01:21:30.591Z,11.73
2023-04-19T01:23:57.308Z,11.65
2023-04-19T01:26:25.259Z,11.77
2023-04-19T01:28:51.712Z,11.80
2023-04-19T01:31:18.323Z,11.48
2023-04-19T01:33:44.853Z,11.93
2023-04-19T01:36:11.342Z,11.77
2023-04-19T01:38:37.814Z,11.05
2023-04-19T01:41:04.333Z,11.15
2023-04-19T01:43:30.803Z,11.90
2023-04-19T01:45:57.248Z,11.15
2023-04-19T01:48:23.756Z,11.10
2023-04-19T01:50:50.247Z,11.45
2023-04-19T01:53:16.699Z,11.48
2023-04-19T01:55:43.667Z,11.57
2023-04-19T01:58:10.225Z,11.65
2023-04-19T02:00:36.684Z,10.98
2023-04-19T02:03:03.482Z,10.77
2023-04-19T02:05:30.247Z,10.90
2023-04-19T02:07:56.697Z,11.60
2023-04-19T02:10:23.263Z,10.95
2023-04-19T02:12:49.779Z,11.10
2023-04-19T02:15:16.219Z,11.07
2023-04-19T02:17:43.380Z,11.23
2023-04-19T02:20:10.834Z,10.40
2023-04-19T02:22:37.360Z,11.45
2023-04-19T02:25:04.554Z,11.07
2023-04-19T02:27:31.180Z,10.70
2023-04-19T02:29:57.688Z,10.85
2023-04-19T02:32:24.377Z,11.85
2023-04-19T02:34:50.846Z,10.70
2023-04-19T02:37:18.357Z,11.05
2023-04-19T02:39:45.964Z,10.20
2023-04-19T02:42:12.579Z,10.85
2023-04-19T02:44:39.078Z,11.25
2023-04-19T02:47:05.544Z,10.95
2023-04-19T02:49:36.973Z,10.50
2023-04-19T02:52:03.668Z,10.23
2023-04-19T02:54:30.181Z,10.52
2023-04-19T02:56:57.715Z,10.43
2023-04-19T02:59:24.269Z,10.93
2023-04-19T03:01:50.914Z,10.10
2023-04-19T03:04:18.060Z,10.52
2023-04-19T03:06:44.755Z,10.57
2023-04-19T03:09:11.369Z,10.55
2023-04-19T03:11:38.683Z,10.60
2023-04-19T03:14:05.216Z,10.68
2023-04-19T03:16:31.661Z,10.10
2023-04-19T03:18:58.129Z,10.38
2023-04-19T03:21:27.473Z,10.50
2023-04-19T03:23:54.811Z,10.02
2023-04-19T03:26:21.443Z,9.90
2023-04-19T03:28:48.572Z,10.25
2023-04-19T03:31:15.271Z,10.10
2023-04-19T03:33:41.774Z,10.13
2023-04-19T03:36:08.474Z,9.80
2023-04-19T03:38:35.091Z,9.88
2023-04-19T03:41:01.584Z,9.02
2023-04-19T03:43:28.132Z,9.73
2023-04-19T03:45:54.655Z,10.00
2023-04-19T03:48:21.098Z,9.75
2023-04-19T03:50:47.622Z,9.55
2023-04-19T03:53:14.066Z,9.40
2023-04-19T03:55:40.541Z,9.63
2023-04-19T03:58:07.162Z,9.88
2023-04-19T04:00:33.627Z,10.70
2023-04-19T04:03:00.423Z,9.43
2023-04-19T04:05:28.623Z,9.60
2023-04-19T04:07:56.323Z,10.27
2023-04-19T04:10:22.793Z,9.77
2023-04-19T04:12:49.247Z,9.48
2023-04-19T04:15:15.818Z,10.05
2023-04-19T04:17:42.313Z,9.68
2023-04-19T04:20:09.831Z,9.68
2023-04-19T04:22:39.825Z,9.27
2023-04-19T04:25:06.860Z,9.75
2023-04-19T04:27:33.362Z,10.40
2023-04-19T04:30:01.622Z,9.85
2023-04-19T04:32:28.091Z,9.73
2023-04-19T04:34:54.563Z,9.60
2023-04-19T04:37:20.987Z,10.15
2023-04-19T04:39:47.443Z,9.77
2023-04-19T04:42:13.935Z,9.68
2023-04-19T04:44:41.497Z,10.25
2023-04-19T04:47:07.995Z,9.75
2023-04-19T04:49:34.556Z,9.75
2023-04-19T04:52:01.044Z,9.77
2023-04-19T04:54:27.818Z,9.68
2023-04-19T04:56:54.317Z,9.18
2023-04-19T04:59:20.922Z,10.40
2023-04-19T05:01:47.629Z,9.77
2023-04-19T05:04:14.402Z,9.20
2023-04-19T05:06:41.192Z,10.27
2023-04-19T05:09:08.126Z,10.05
2023-04-19T05:11:34.611Z,10.18
2023-04-19T05:14:01.230Z,9.50
2023-04-19T05:16:27.830Z,9.68
2023-04-19T05:18:54.270Z,11.82
2023-04-19T05:21:21.702Z,10.20
2023-04-19T05:23:48.371Z,9.80
2023-04-19T05:26:15.651Z,12.90
2023-04-19T05:28:45.386Z,17.10
2023-04-19T05:31:12.384Z,14.60
2023-04-19T05:33:38.882Z,12.98
2023-04-19T05:36:05.560Z,14.48
2023-04-19T05:38:31.992Z,15.13
2023-04-19T05:40:58.949Z,11.13
2023-04-19T05:43:25.479Z,10.32
2023-04-19T05:45:51.974Z,10.40
2023-04-19T05:48:18.432Z,9.25
2023-04-19T05:50:45.009Z,9.45
2023-04-19T05:53:11.766Z,8.80
2023-04-19T05:55:38.269Z,8.60
2023-04-19T05:58:04.904Z,8.93
2023-04-19T06:00:31.406Z,8.45
2023-04-19T06:02:58.090Z,8.52
2023-04-19T06:05:24.775Z,8.90
2023-04-19T06:07:55.700Z,8.20
2023-04-19T06:10:36.756Z,8.95
2023-04-19T06:13:07.591Z,8.48
2023-04-19T06:15:34.170Z,8.07
2023-04-19T06:18:00.766Z,8.15
2023-04-19T06:20:27.294Z,7.68
2023-04-19T06:22:53.795Z,8.68
2023-04-19T06:25:20.700Z,8.68
2023-04-19T06:27:47.156Z,8.98
2023-04-19T06:30:13.756Z,7.88
2023-04-19T06:32:40.396Z,8.50
2023-04-19T06:35:07.505Z,12.18
2023-04-19T06:37:34.590Z,11.63
2023-04-19T06:40:01.915Z,25.25
2023-04-19T06:42:28.418Z,10.82
2023-04-19T06:44:57.103Z,9.68
2023-04-19T06:47:23.725Z,10.45
2023-04-19T06:49:50.328Z,18.05
2023-04-19T06:52:16.913Z,21.02
2023-04-19T06:54:48.056Z,9.80
2023-04-19T06:57:14.560Z,8.45
2023-04-19T06:59:41.120Z,11.50
2023-04-19T07:02:08.158Z,9.23
2023-04-19T07:04:34.934Z,8.85
2023-04-19T07:07:01.491Z,8.77
2023-04-19T07:09:28.498Z,8.60
2023-04-19T07:11:55.705Z,8.35
2023-04-19T07:14:23.646Z,8.95
2023-04-19T07:16:50.956Z,9.18
2023-04-19T07:19:20.512Z,9.60
2023-04-19T07:21:47.072Z,9.68
2023-04-19T07:24:13.676Z,10.15
2023-04-19T07:26:40.596Z,9.63
2023-04-19T07:29:07.113Z,9.50
2023-04-19T07:31:33.676Z,9.68
2023-04-19T07:34:00.160Z,10.05
2023-04-19T07:36:26.969Z,10.77
2023-04-19T07:38:53.655Z,10.82
2023-04-19T07:41:20.706Z,10.07
2023-04-19T07:43:47.292Z,10.65
2023-04-19T07:46:16.345Z,11.48
2023-04-19T07:48:43.038Z,11.80
2023-04-19T07:51:14.794Z,10.70
2023-04-19T07:53:44.146Z,10.90
2023-04-19T07:56:12.919Z,11.88
2023-04-19T07:58:41.247Z,10.65
2023-04-19T08:01:07.998Z,11.25
2023-04-19T08:03:35.336Z,10.07
2023-04-19T08:06:03.141Z,11.07
2023-04-19T08:08:29.606Z,10.88
2023-04-19T08:10:56.038Z,11.25
2023-04-19T08:13:22.603Z,10.38
2023-04-19T08:18:18.588Z,11.05
2023-04-19T08:20:47.302Z,10.70
2023-04-19T08:23:22.948Z,10.55
2023-04-19T08:25:54.253Z,11.18
2023-04-19T08:28:20.788Z,10.60
2023-04-19T08:30:47.562Z,10.75
2023-04-19T08:33:14.163Z,12.65
2023-04-19T08:35:41.707Z,10.25
2023-04-19T08:38:08.656Z,10.55
2023-04-19T08:40:35.623Z,9.40
2023-04-19T08:43:06.516Z,11.15
2023-04-19T08:45:33.309Z,10.35
2023-04-19T08:48:02.518Z,12.70
2023-04-19T08:50:37.110Z,13.30
2023-04-19T08:55:51.003Z,9.32
2023-04-19T08:58:37.060Z,9.82
2023-04-19T09:01:22.909Z,9.30
2023-04-19T09:04:07.224Z,9.65
2023-04-19T09:06:43.699Z,9.20
2023-04-19T09:09:35.376Z,9.63
2023-04-19T09:12:20.317Z,8.90
2023-04-19T09:15:00.600Z,15.02
2023-04-19T09:17:28.765Z,55.17
2023-04-19T09:19:55.465Z,14.52
2023-04-19T09:22:22.030Z,24.10
2023-04-19T09:27:26.984Z,47.80
2023-04-19T09:29:58.297Z,61.83
2023-04-19T09:32:25.517Z,11.18
2023-04-19T09:34:57.047Z,40.50
2023-04-19T09:39:53.981Z,17.98
2023-04-19T09:42:35.976Z,17.90
2023-04-19T09:47:39.628Z,7.53
2023-04-19T09:52:40.046Z,7.20
2023-04-19T09:55:14.648Z,6.90
2023-04-19T09:57:52.871Z,9.25
2023-04-19T10:00:21.727Z,6.32
2023-04-19T10:02:55.908Z,5.85
2023-04-19T10:05:24.128Z,6.60
2023-04-19T10:07:51.078Z,5.38
2023-04-19T10:10:21.001Z,6.28
2023-04-19T10:13:11.583Z,5.75
2023-04-19T10:15:50.134Z,5.55
2023-04-19T10:18:19.608Z,5.40
2023-04-19T10:21:07.408Z,5.78
2023-04-19T10:23:34.702Z,5.30
2023-04-19T10:26:01.155Z,5.30
2023-04-19T10:28:31.011Z,5.63
2023-04-19T10:31:01.764Z,4.43
2023-04-19T10:33:34.701Z,4.32
2023-04-19T10:36:02.112Z,4.63
2023-04-19T10:38:37.263Z,4.97
2023-04-19T10:41:05.376Z,5.47
2023-04-19T10:43:34.273Z,5.63
2023-04-19T10:46:20.993Z,5.80
2023-04-19T10:48:54.028Z,5.68
2023-04-19T10:51:23.442Z,5.60
2023-04-19T10:53:54.138Z,5.38
2023-04-19T10:57:02.792Z,5.93
2023-04-19T10:59:31.161Z,4.80
2023-04-19T11:02:03.221Z,5.55
2023-04-19T11:04:29.797Z,5.78
2023-04-19T11:07:03.836Z,5.55
2023-04-19T11:09:34.695Z,4.97
2023-04-19T11:12:22.591Z,5.47
2023-04-19T11:14:54.396Z,4.93
2023-04-19T11:17:25.939Z,5.20
2023-04-19T11:20:03.510Z,5.50
2023-04-19T11:22:34.200Z,5.13
2023-04-19T11:25:06.759Z,4.72
2023-04-19T11:27:34.229Z,5.40
2023-04-19T11:30:12.304Z,5.47
2023-04-19T11:32:54.402Z,4.82
2023-04-19T11:35:21.996Z,5.10
2023-04-19T11:37:48.996Z,4.65
2023-04-19T11:40:18.580Z,5.35
2023-04-19T11:42:45.563Z,5.10
2023-04-19T11:45:29.470Z,5.15
2023-04-19T11:47:58.375Z,4.97
2023-04-19T11:50:33.905Z,4.88
2023-04-19T11:53:16.640Z,4.50
2023-04-19T11:55:45.175Z,4.75
2023-04-19T11:58:36.299Z,4.95
2023-04-19T12:01:11.360Z,4.68
2023-04-19T12:03:45.632Z,5.05
2023-04-19T12:06:14.738Z,4.20
2023-04-19T12:08:49.257Z,5.00
2023-04-19T12:11:18.854Z,4.82
2023-04-19T12:13:45.611Z,4.68
2023-04-19T12:16:13.409Z,5.63
2023-04-19T12:18:51.186Z,4.38
2023-04-19T12:21:32.964Z,4.10
2023-04-19T12:24:01.741Z,4.25
2023-04-19T12:26:29.617Z,4.28
2023-04-19T12:28:57.687Z,3.90
2023-04-19T12:31:24.476Z,4.40
2023-04-19T12:33:51.105Z,4.18
2023-04-19T12:36:17.570Z,4.00
2023-04-19T12:38:44.071Z,4.07
2023-04-19T12:41:11.243Z,13.60
2023-04-19T12:43:37.697Z,41.25
2023-04-19T12:46:05.204Z,12.38
2023-04-19T12:48:31.719Z,11.18
2023-04-19T12:50:58.195Z,14.45
2023-04-19T12:53:25.235Z,16.25
2023-04-19T12:55:51.832Z,12.32
2023-04-19T12:58:21.184Z,21.95
2023-04-19T13:00:47.660Z,6.10
2023-04-19T13:03:14.312Z,7.40
2023-04-19T13:05:41.002Z,6.78
2023-04-19T13:08:07.499Z,5.40
2023-04-19T13:10:33.977Z,4.70
2023-04-19T13:13:00.777Z,5.15
2023-04-19T13:15:28.631Z,5.53
2023-04-19T13:17:55.681Z,5.53
2023-04-19T13:20:22.294Z,6.30
2023-04-19T13:22:48.894Z,5.78
2023-04-19T13:25:15.377Z,6.00
2023-04-19T13:27:41.806Z,6.07
2023-04-19T13:30:08.712Z,5.88
2023-04-19T13:32:35.266Z,5.90
2023-04-19T13:35:01.887Z,6.40
2023-04-19T13:37:28.586Z,5.90
2023-04-19T13:40:03.980Z,5.88
2023-04-19T13:42:37.555Z,5.90
2023-04-19T13:45:04.599Z,6.90
2023-04-19T13:47:31.179Z,6.82
2023-04-19T13:49:57.694Z,7.80
2023-04-19T13:52:24.288Z,9.30
2023-04-19T13:54:50.845Z,10.68
2023-04-19T13:57:17.356Z,11.80
2023-04-19T13:59:43.849Z,7.97
2023-04-19T14:02:10.373Z,8.90
2023-04-19T14:04:37.010Z,8.85
2023-04-19T14:07:03.597Z,7.95
2023-04-19T14:09:30.112Z,7.75
2023-04-19T14:11:56.693Z,7.70
2023-04-19T14:14:23.122Z,6.97
2023-04-19T14:16:49.725Z,7.45
2023-04-19T14:19:16.339Z,7.03
2023-04-19T14:21:42.796Z,7.20
2023-04-19T14:24:09.252Z,7.78
2023-04-19T14:26:35.949Z,7.07
2023-04-19T14:29:02.503Z,7.13
2023-04-19T14:31:29.463Z,8.45
2023-04-19T14:33:56.641Z,7.20
2023-04-19T14:36:23.138Z,6.85
2023-04-19T14:38:49.577Z,6.00
2023-04-19T14:41:16.056Z,8.00
2023-04-19T14:43:42.574Z,7.05
2023-04-19T14:46:09.166Z,6.68
2023-04-19T14:48:35.711Z,6.88
2023-04-19T14:51:02.153Z,6.78
2023-04-19T14:53:28.678Z,7.10
2023-04-19T14:55:55.440Z,7.28
2023-04-19T14:58:21.996Z,6.30
2023-04-19T15:00:48.493Z,5.45
2023-04-19T15:03:15.235Z,4.90
2023-04-19T15:05:41.995Z,6.07
2023-04-19T15:08:17.329Z,4.80
2023-04-19T15:10:50.177Z,5.50
2023-04-19T15:13:16.609Z,5.60
2023-04-19T15:15:43.142Z,5.18
2023-04-19T15:18:09.845Z,4.82
2023-04-19T15:20:36.377Z,4.10
2023-04-19T15:23:02.861Z,3.75
2023-04-19T15:25:29.446Z,3.70
2023-04-19T15:27:55.933Z,4.13
2023-04-19T15:30:22.412Z,3.75
2023-04-19T15:32:49.032Z,3.28
2023-04-19T15:35:15.817Z,3.30
2023-04-19T15:37:43.796Z,3.70
2023-04-19T15:40:13.036Z,3.00
2023-04-19T15:42:39.643Z,2.90
2023-04-19T15:45:07.160Z,3.60
2023-04-19T15:47:34.402Z,4.18
2023-04-19T15:50:01.327Z,3.00
2023-04-19T15:52:27.739Z,2.75
2023-04-19T15:54:54.270Z,2.35
2023-04-19T15:57:20.701Z,2.20
2023-04-19T15:59:47.153Z,2.63
2023-04-19T16:02:13.732Z,2.20
2023-04-19T16:04:40.469Z,2.15
2023-04-19T16:07:07.087Z,2.10
2023-04-19T16:09:33.564Z,2.00
2023-04-19T16:12:00.732Z,2.08
2023-04-19T16:14:27.198Z,1.90
2023-04-19T16:16:53.869Z,2.10
2023-04-19T16:19:23.143Z,2.40
2023-04-19T16:21:49.908Z,1.80
2023-04-19T16:24:16.419Z,1.92
2023-04-19T16:26:42.885Z,2.10
2023-04-19T16:29:09.348Z,2.10
2023-04-19T16:31:35.961Z,2.40
2023-04-19T16:34:02.578Z,2.20
2023-04-19T16:36:29.306Z,2.10
2023-04-19T16:38:55.766Z,2.10
2023-04-19T16:41:22.195Z,2.42
2023-04-19T16:43:48.653Z,2.40
2023-04-19T16:46:15.403Z,2.00
2023-04-19T16:48:41.947Z,2.40
2023-04-19T16:51:08.413Z,3.67
2023-04-19T16:53:34.995Z,2.70
2023-04-19T16:56:03.552Z,6.15
2023-04-19T16:58:30.917Z,3.95
2023-04-19T17:00:58.292Z,2.83
2023-04-19T17:03:24.996Z,2.70
2023-04-19T17:05:51.501Z,2.72
2023-04-19T17:08:17.945Z,3.00
2023-04-19T17:10:44.438Z,2.80
2023-04-19T17:13:10.944Z,2.75
2023-04-19T17:15:38.608Z,3.33
2023-04-19T17:18:05.586Z,3.10
2023-04-19T17:20:33.283Z,3.05
2023-04-19T17:22:59.726Z,2.90
2023-04-19T17:25:26.213Z,3.05
2023-04-19T17:27:52.686Z,3.03
2023-04-19T17:30:19.246Z,2.88
2023-04-19T17:32:45.898Z,2.75
2023-04-19T17:35:12.682Z,2.75
2023-04-19T17:37:39.321Z,2.83
2023-04-19T17:40:06.811Z,2.78
2023-04-19T17:42:33.394Z,2.63
2023-04-19T17:45:00.311Z,2.80
2023-04-19T17:47:26.992Z,2.75
2023-04-19T17:49:53.569Z,2.67
2023-04-19T17:52:20.099Z,2.60
2023-04-19T17:54:48.105Z,2.30
2023-04-19T17:57:14.621Z,2.70
2023-04-19T17:59:41.136Z,2.70
2023-04-19T18:02:10.285Z,3.03
2023-04-19T18:04:37.269Z,3.53
2023-04-19T18:07:03.806Z,2.80
2023-04-19T18:09:30.391Z,3.13
2023-04-19T18:11:57.793Z,3.05
2023-04-19T18:14:24.234Z,3.03
2023-04-19T18:16:50.685Z,3.03
2023-04-19T18:19:17.353Z,2.72
2023-04-19T18:21:44.000Z,2.80
2023-04-19T18:24:10.479Z,2.75
2023-04-19T18:26:39.194Z,3.05
2023-04-19T18:29:05.653Z,3.03
2023-04-19T18:31:32.184Z,2.70
2023-04-19T18:33:59.159Z,3.22
2023-04-19T18:36:25.877Z,3.70
2023-04-19T18:38:52.312Z,2.95
2023-04-19T18:41:18.781Z,2.78
2023-04-19T18:43:59.807Z,3.35
2023-04-19T18:46:32.032Z,5.00
2023-04-19T18:48:58.501Z,3.70
2023-04-19T18:51:26.711Z,2.78
2023-04-19T18:53:53.328Z,2.70
2023-04-19T18:56:19.786Z,2.55
2023-04-19T18:58:46.438Z,2.50
2023-04-19T19:01:12.969Z,2.75
2023-04-19T19:04:07.832Z,2.50
2023-04-19T19:06:26.696Z,2.78
2023-04-19T19:08:54.982Z,2.90
2023-04-19T19:11:47.137Z,2.58
2023-04-19T19:14:08.643Z,2.90
2023-04-19T19:19:06.944Z,14.07
2023-04-19T19:21:33.423Z,18.05
2023-04-19T19:23:59.886Z,4.32
2023-04-19T19:26:26.395Z,2.78
2023-04-19T19:28:53.533Z,2.90
2023-04-19T19:31:20.041Z,4.28
2023-04-19T19:33:57.000Z,3.78
2023-04-19T19:36:33.682Z,4.38
2023-04-19T19:39:00.421Z,6.25
2023-04-19T19:41:56.380Z,6.57
2023-04-19T19:44:13.385Z,14.05
2023-04-19T19:46:39.910Z,4.85
2023-04-19T19:49:06.720Z,5.90
2023-04-19T19:54:02.984Z,4.70
2023-04-19T19:56:29.492Z,3.72
2023-04-19T19:58:57.493Z,3.10
2023-04-19T20:01:24.321Z,9.95
2023-04-19T20:03:51.285Z,3.50
2023-04-19T20:07:07.536Z,3.03
2023-04-19T20:09:04.574Z,2.30
2023-04-19T20:11:31.274Z,3.75
2023-04-19T20:13:57.927Z,2.30
2023-04-19T20:16:24.486Z,2.40
2023-04-19T20:18:50.959Z,2.55
2023-04-19T20:21:17.845Z,2.67
2023-04-19T20:23:44.356Z,2.20
2023-04-19T20:26:10.794Z,2.08
2023-04-19T20:28:37.240Z,2.22
2023-04-19T20:31:03.746Z,2.40
2023-04-19T20:33:30.254Z,2.03
2023-04-19T20:35:59.564Z,2.05
2023-04-19T20:38:28.930Z,1.95
2023-04-19T20:40:56.526Z,2.15
2023-04-19T20:43:22.987Z,2.03
2023-04-19T20:45:49.681Z,3.83
2023-04-19T20:48:17.589Z,32.20
2023-04-19T20:50:44.151Z,22.98
2023-04-19T20:53:10.806Z,20.08
2023-04-19T20:55:38.256Z,4.05
2023-04-19T20:58:04.783Z,3.53
2023-04-19T21:00:31.296Z,8.90
2023-04-19T21:02:57.852Z,4.15
2023-04-19T21:05:24.546Z,2.58
2023-04-19T21:07:51.112Z,4.03
2023-04-19T21:10:21.626Z,4.03
2023-04-19T21:12:48.796Z,2.40
2023-04-19T21:15:15.664Z,2.28
2023-04-19T21:17:42.390Z,2.50
2023-04-19T21:20:13.499Z,2.38
2023-04-19T21:22:41.197Z,2.70
2023-04-19T21:25:08.515Z,3.05
2023-04-19T21:27:36.517Z,8.95
2023-04-19T21:30:04.292Z,2.72
2023-04-19T21:32:31.122Z,3.20
2023-04-19T21:34:59.121Z,2.70
2023-04-19T21:37:25.594Z,2.38
2023-04-19T21:39:52.227Z,2.30
2023-04-19T21:42:18.956Z,2.60
2023-04-19T21:44:45.888Z,6.63
2023-04-19T21:47:12.658Z,4.45
2023-04-19T21:49:39.423Z,2.80
2023-04-19T21:52:06.772Z,2.90
2023-04-19T21:54:34.474Z,4.90
2023-04-19T21:57:01.891Z,3.00
2023-04-19T21:59:29.667Z,2.53
2023-04-19T22:01:56.129Z,2.67
2023-04-19T22:04:22.817Z,3.53
2023-04-19T22:06:49.523Z,3.05
2023-04-19T22:09:16.310Z,3.10
2023-04-19T22:11:43.281Z,4.40
2023-04-19T22:14:09.803Z,3.30
2023-04-19T22:16:36.255Z,3.38
2023-04-19T22:19:03.479Z,2.30
2023-04-19T22:21:31.182Z,2.55
2023-04-19T22:23:57.649Z,2.25
2023-04-19T22:26:26.139Z,2.70
2023-04-19T22:28:54.414Z,3.38
2023-04-19T22:31:20.911Z,3.28
2023-04-19T22:33:47.367Z,2.97
2023-04-19T22:36:13.849Z,3.33
2023-04-19T22:38:40.552Z,4.90
2023-04-19T22:41:06.980Z,3.33
2023-04-19T22:43:33.416Z,2.80
2023-04-19T22:46:00.068Z,3.60
2023-04-19T22:48:28.034Z,2.92
2023-04-19T22:50:54.492Z,3.87
2023-04-19T22:53:21.087Z,3.65
2023-04-19T22:55:47.905Z,2.40
2023-04-19T22:58:14.351Z,2.50
2023-04-19T23:00:40.953Z,2.30
2023-04-19T23:03:07.501Z,2.30
2023-04-19T23:05:33.966Z,2.25
2023-04-19T23:08:00.472Z,2.38
2023-04-19T23:10:27.022Z,2.35
2023-04-19T23:12:57.327Z,2.50
2023-04-19T23:15:24.841Z,2.20
2023-04-19T23:17:52.507Z,2.30
2023-04-19T23:20:19.093Z,2.53
2023-04-19T23:22:45.582Z,2.60
2023-04-19T23:25:12.069Z,2.55
2023-04-19T23:27:38.593Z,2.53
2023-04-19T23:30:07.642Z,2.40
2023-04-19T23:32:34.162Z,2.65
2023-04-19T23:35:00.786Z,2.17
2023-04-19T23:37:27.217Z,2.38
2023-04-19T23:39:53.669Z,2.38
2023-04-19T23:42:20.456Z,2.30
2023-04-19T23:44:46.941Z,2.78
2023-04-19T23:47:13.400Z,2.40
2023-04-19T23:49:39.842Z,2.45
2023-04-19T23:52:06.416Z,2.90
2023-04-19T23:54:32.932Z,2.40
2023-04-19T23:56:59.567Z,2.50
2023-04-19T23:59:29.067Z,2.90
